createdAt,value
2023-04-02T00:01:44.062Z,101287.50
2023-04-02T00:04:46.737Z,101307.53
2023-04-02T00:07:49.750Z,101310.97
2023-04-02T00:10:52.678Z,101289.44
2023-04-02T00:13:56.549Z,101319.41
2023-04-02T00:16:59.699Z,101323.94
2023-04-02T00:20:06.318Z,101318.91
2023-04-02T00:23:11.632Z,101336.69
2023-04-02T00:26:30.358Z,101334.22
2023-04-02T00:29:34.219Z,101338.63
2023-04-02T00:32:36.966Z,101340.88
2023-04-02T00:35:39.665Z,101334.38
2023-04-02T00:38:43.687Z,101351.63
2023-04-02T00:41:47.575Z,101344.91
2023-04-02T00:44:51.536Z,101355.81
2023-04-02T00:47:54.138Z,101372.91
2023-04-02T00:50:56.753Z,101370.44
2023-04-02T00:54:01.450Z,101383.16
2023-04-02T00:57:04.035Z,101377.63
2023-04-02T01:00:20.365Z,101390.34
2023-04-02T01:03:34.324Z,101386.06
2023-04-02T01:06:38.430Z,101403.31
2023-04-02T01:09:51.262Z,101406.22
2023-04-02T01:12:57.501Z,101406.53
2023-04-02T01:16:03.209Z,101414.66
2023-04-02T01:19:18.169Z,101416.91
2023-04-02T01:22:22.766Z,101419.69
2023-04-02T01:25:26.592Z,101412.03
2023-04-02T01:28:33.627Z,101431.41
2023-04-02T01:31:37.558Z,101436.44
2023-04-02T01:34:40.256Z,101443.22
2023-04-02T01:37:46.635Z,101438.22
2023-04-02T01:40:51.489Z,101449.59
2023-04-02T01:43:54.774Z,101455.94
2023-04-02T01:47:00.696Z,101458.84
2023-04-02T01:50:05.683Z,101455.75
2023-04-02T01:53:09.610Z,101462.09
2023-04-02T01:56:12.197Z,101463.56
2023-04-02T01:59:15.896Z,101475.75
2023-04-02T02:02:21.794Z,101481.81
2023-04-02T02:05:24.448Z,101484.25
2023-04-02T02:08:35.402Z,101490.31
2023-04-02T02:11:37.913Z,101498.44
2023-04-02T02:14:40.683Z,101504.28
2023-04-02T02:17:44.848Z,101499.88
2023-04-02T02:20:47.496Z,101492.69
2023-04-02T02:23:50.165Z,101515.13
2023-04-02T02:26:59.586Z,101517.72
2023-04-02T02:30:04.789Z,101523.06
2023-04-02T02:33:14.234Z,101526.63
2023-04-02T02:36:19.761Z,101528.91
2023-04-02T02:39:24.066Z,101530.56
2023-04-02T02:42:28.950Z,101543.88
2023-04-02T02:45:34.339Z,101553.31
2023-04-02T02:48:38.908Z,101546.66
2023-04-02T02:51:43.482Z,101553.81
2023-04-02T02:54:47.920Z,101559.38
2023-04-02T02:57:53.175Z,101566.53
2023-04-02T03:00:55.894Z,101580.47
2023-04-02T03:03:59.909Z,101581.09
2023-04-02T03:07:03.699Z,101587.25
2023-04-02T03:10:10.766Z,101588.47
2023-04-02T03:13:19.766Z,101598.53
2023-04-02T03:16:24.440Z,101611.34
2023-04-02T03:19:30.598Z,101598.75
2023-04-02T03:22:35.949Z,101610.44
2023-04-02T03:25:40.966Z,101629.06
2023-04-02T03:28:44.716Z,101632.25
2023-04-02T03:31:48.933Z,101634.47
2023-04-02T03:34:53.696Z,101637.06
2023-04-02T03:37:59.327Z,101644.00
2023-04-02T03:41:04.476Z,101654.56
2023-04-02T03:44:08.569Z,101674.22
2023-04-02T03:47:12.886Z,101675.34
2023-04-02T03:50:19.113Z,101688.34
2023-04-02T03:53:24.023Z,101699.31
2023-04-02T03:56:29.072Z,101699.06
2023-04-02T03:59:37.785Z,101701.84
2023-04-02T04:02:42.115Z,101714.84
2023-04-02T04:05:48.447Z,101719.53
2023-04-02T04:08:54.573Z,101728.47
2023-04-02T04:12:03.110Z,101738.97
2023-04-02T04:15:07.726Z,101739.59
2023-04-02T04:18:13.379Z,101741.84
2023-04-02T04:21:30.794Z,101744.59
2023-04-02T04:24:33.374Z,101751.53
2023-04-02T04:27:42.682Z,101748.56
2023-04-02T04:30:48.682Z,101761.66
2023-04-02T04:33:54.740Z,101766.34
2023-04-02T04:37:01.622Z,101767.56
2023-04-02T04:40:07.473Z,101773.91
2023-04-02T04:43:14.882Z,101788.84
2023-04-02T04:46:18.374Z,101780.84
2023-04-02T04:49:21.854Z,101783.59
2023-04-02T04:52:27.338Z,101788.59
2023-04-02T04:55:31.724Z,101806.38
2023-04-02T04:58:36.444Z,101809.81
2023-04-02T05:01:41.516Z,101812.66
2023-04-02T05:04:44.663Z,101818.75
2023-04-02T05:07:50.280Z,101826.50
2023-04-02T05:10:54.166Z,101832.03
2023-04-02T05:13:58.811Z,101833.16
2023-04-02T05:17:02.565Z,101841.47
2023-04-02T05:20:09.708Z,101846.97
2023-04-02T05:23:16.333Z,101869.09
2023-04-02T05:26:20.536Z,101870.75
2023-04-02T05:29:25.166Z,101879.34
2023-04-02T05:32:29.298Z,101880.22
2023-04-02T05:35:33.793Z,101884.69
2023-04-02T05:38:38.778Z,101895.75
2023-04-02T05:41:42.127Z,101903.50
2023-04-02T05:44:47.773Z,101908.19
2023-04-02T05:47:51.632Z,101914.06
2023-04-02T05:50:55.488Z,101915.75
2023-04-02T05:54:00.576Z,101913.53
2023-04-02T05:57:04.105Z,101910.28
2023-04-02T06:00:08.766Z,101932.94
2023-04-02T06:03:15.002Z,101939.06
2023-04-02T06:06:22.748Z,101960.63
2023-04-02T06:09:31.515Z,101967.53
2023-04-02T06:12:36.303Z,101976.75
2023-04-02T06:15:38.886Z,101982.88
2023-04-02T06:18:41.460Z,101983.97
2023-04-02T06:21:47.067Z,101997.78
2023-04-02T06:24:53.828Z,102010.22
2023-04-02T06:27:57.589Z,102012.69
2023-04-02T06:31:02.362Z,102019.63
2023-04-02T06:34:06.885Z,102023.47
2023-04-02T06:37:15.972Z,102036.50
2023-04-02T06:40:39.404Z,102039.28
2023-04-02T06:43:43.291Z,102060.25
2023-04-02T06:46:47.932Z,102061.38
2023-04-02T06:49:52.811Z,102050.94
2023-04-02T06:52:56.532Z,102073.56
2023-04-02T06:56:04.143Z,102066.97
2023-04-02T06:59:07.462Z,102072.19
2023-04-02T07:02:20.652Z,102080.19
2023-04-02T07:05:23.318Z,102091.25
2023-04-02T07:08:25.955Z,102109.50
2023-04-02T07:11:29.800Z,102120.53
2023-04-02T07:14:32.342Z,102121.06
2023-04-02T07:17:34.891Z,102121.66
2023-04-02T07:20:37.970Z,102129.09
2023-04-02T07:23:40.492Z,102118.63
2023-04-02T07:26:44.334Z,102132.69
2023-04-02T07:29:46.898Z,102145.38
2023-04-02T07:32:49.683Z,102147.84
2023-04-02T07:35:53.344Z,102162.72
2023-04-02T07:38:55.961Z,102165.22
2023-04-02T07:42:00.416Z,102166.88
2023-04-02T07:45:05.835Z,102169.06
2023-04-02T07:48:09.584Z,102180.94
2023-04-02T07:51:16.845Z,102193.06
2023-04-02T07:54:19.373Z,102195.00
2023-04-02T07:57:23.570Z,102191.66
2023-04-02T08:00:26.780Z,102178.44
2023-04-02T08:03:29.546Z,102193.59
2023-04-02T08:06:32.339Z,102193.31
2023-04-02T08:09:34.857Z,102206.84
2023-04-02T08:12:38.740Z,102209.84
2023-04-02T08:15:41.491Z,102214.84
2023-04-02T08:18:44.006Z,102224.78
2023-04-02T08:21:48.080Z,102233.56
2023-04-02T08:24:50.808Z,102243.50
2023-04-02T08:27:54.705Z,102252.34
2023-04-02T08:30:57.276Z,102259.50
2023-04-02T08:33:59.833Z,102263.63
2023-04-02T08:37:02.414Z,102266.38
2023-04-02T08:40:07.000Z,102271.34
2023-04-02T08:43:17.100Z,102263.38
2023-04-02T08:46:21.513Z,102268.03
2023-04-02T08:49:29.782Z,102286.78
2023-04-02T08:52:33.296Z,102268.84
2023-04-02T08:55:37.768Z,102297.53
2023-04-02T08:58:42.855Z,102307.19
2023-04-02T09:01:47.765Z,102309.66
2023-04-02T09:04:50.388Z,102321.22
2023-04-02T09:07:53.430Z,102313.50
2023-04-02T09:10:58.880Z,102327.59
2023-04-02T09:14:04.487Z,102330.03
2023-04-02T09:17:07.033Z,102329.25
2023-04-02T09:20:17.096Z,102331.19
2023-04-02T09:23:20.886Z,102340.28
2023-04-02T09:26:24.310Z,102352.13
2023-04-02T09:29:39.252Z,102342.72
2023-04-02T09:32:47.087Z,102354.28
2023-04-02T09:35:56.624Z,102349.00
2023-04-02T09:39:01.342Z,102353.13
2023-04-02T09:42:07.316Z,102363.09
2023-04-02T09:45:21.201Z,102363.59
2023-04-02T09:48:25.877Z,102365.81
2023-04-02T09:51:29.913Z,102365.81
2023-04-02T09:54:32.940Z,102363.91
2023-04-02T09:57:38.119Z,102371.94
2023-04-02T10:00:42.309Z,102369.09
2023-04-02T10:03:44.931Z,102392.84
2023-04-02T10:06:49.982Z,102392.19
2023-04-02T10:09:58.369Z,102403.22
2023-04-02T10:13:01.958Z,102399.91
2023-04-02T10:16:08.091Z,102396.03
2023-04-02T10:19:23.643Z,102389.91
2023-04-02T10:22:28.827Z,102404.22
2023-04-02T10:25:33.095Z,102410.78
2023-04-02T10:28:44.756Z,102405.47
2023-04-02T10:31:52.566Z,102414.03
2023-04-02T10:34:57.800Z,102411.25
2023-04-02T10:38:14.468Z,102428.31
2023-04-02T10:41:26.596Z,102442.09
2023-04-02T10:44:33.238Z,102449.81
2023-04-02T10:47:39.279Z,102427.94
2023-04-02T10:50:44.871Z,102444.28
2023-04-02T10:53:50.199Z,102454.19
2023-04-02T10:56:53.826Z,102429.28
2023-04-02T10:59:58.298Z,102456.59
2023-04-02T11:03:05.998Z,102458.75
2023-04-02T11:06:14.239Z,102459.53
2023-04-02T11:09:18.547Z,102456.50
2023-04-02T11:12:22.680Z,102461.13
2023-04-02T11:15:25.461Z,102456.00
2023-04-02T11:18:34.070Z,102467.50
2023-04-02T11:21:54.918Z,102472.44
2023-04-02T11:25:00.240Z,102471.84
2023-04-02T11:28:14.541Z,102474.06
2023-04-02T11:31:21.253Z,102473.44
2023-04-02T11:35:05.956Z,102477.72
2023-04-02T11:38:54.883Z,102465.97
2023-04-02T11:42:02.942Z,102474.25
2023-04-02T11:45:51.863Z,102469.72
2023-04-02T11:48:55.789Z,102484.41
2023-04-02T11:52:10.893Z,102469.78
2023-04-02T11:55:27.216Z,102484.69
2023-04-02T11:58:37.093Z,102501.28
2023-04-02T12:01:58.222Z,102498.47
2023-04-02T12:05:09.103Z,102513.94
2023-04-02T12:08:29.621Z,102524.00
2023-04-02T12:11:33.671Z,102525.84
2023-04-02T12:14:46.564Z,102525.69
2023-04-02T12:17:49.148Z,102531.19
2023-04-02T12:20:52.514Z,102528.03
2023-04-02T12:23:57.741Z,102523.78
2023-04-02T12:27:15.384Z,102514.25
2023-04-02T12:30:21.174Z,102520.84
2023-04-02T12:33:30.708Z,102528.59
2023-04-02T12:36:34.388Z,102523.50
2023-04-02T12:39:38.280Z,102517.31
2023-04-02T12:42:40.820Z,102522.28
2023-04-02T12:45:43.408Z,102526.28
2023-04-02T12:48:45.932Z,102537.31
2023-04-02T12:51:48.850Z,102524.16
2023-04-02T12:54:53.451Z,102538.22
2023-04-02T12:57:56.672Z,102538.22
2023-04-02T13:01:15.798Z,102543.75
2023-04-02T13:04:18.468Z,102549.53
2023-04-02T13:07:22.141Z,102553.06
2023-04-02T13:10:27.236Z,102573.69
2023-04-02T13:13:31.012Z,102556.06
2023-04-02T13:16:37.125Z,102564.47
2023-04-02T13:19:39.730Z,102558.03
2023-04-02T13:22:42.320Z,102553.22
2023-04-02T13:25:46.204Z,102551.41
2023-04-02T13:28:58.909Z,102558.09
2023-04-02T13:32:02.241Z,102556.94
2023-04-02T13:35:05.297Z,102561.31
2023-04-02T13:38:08.549Z,102552.38
2023-04-02T13:41:18.308Z,102558.47
2023-04-02T13:44:22.834Z,102562.81
2023-04-02T13:47:25.798Z,102567.75
2023-04-02T13:50:28.960Z,102567.16
2023-04-02T13:53:31.763Z,102573.97
2023-04-02T13:56:36.067Z,102575.25
2023-04-02T13:59:38.665Z,102564.38
2023-04-02T14:02:44.377Z,102579.09
2023-04-02T14:05:51.963Z,102589.69
2023-04-02T14:08:57.524Z,102593.19
2023-04-02T14:12:04.776Z,102566.44
2023-04-02T14:15:15.597Z,102598.38
2023-04-02T14:18:36.591Z,102597.53
2023-04-02T14:21:44.356Z,102593.41
2023-04-02T14:24:49.958Z,102600.63
2023-04-02T14:27:57.203Z,102603.94
2023-04-02T14:31:01.866Z,102608.06
2023-04-02T14:34:07.968Z,102610.78
2023-04-02T14:37:14.395Z,102616.03
2023-04-02T14:40:20.478Z,102621.91
2023-04-02T14:43:25.666Z,102618.56
2023-04-02T14:46:28.608Z,102627.75
2023-04-02T14:49:32.969Z,102614.66
2023-04-02T14:52:35.653Z,102632.72
2023-04-02T14:55:39.924Z,102625.72
2023-04-02T14:58:46.659Z,102620.78
2023-04-02T15:01:50.326Z,102629.41
2023-04-02T15:04:55.348Z,102638.28
2023-04-02T15:07:59.411Z,102628.22
2023-04-02T15:11:05.886Z,102638.81
2023-04-02T15:14:14.537Z,102643.78
2023-04-02T15:17:17.122Z,102644.38
2023-04-02T15:20:19.968Z,102642.72
2023-04-02T15:23:29.021Z,102638.22
2023-04-02T15:26:34.625Z,102640.66
2023-04-02T15:29:43.967Z,102634.31
2023-04-02T15:32:46.625Z,102631.22
2023-04-02T15:35:50.687Z,102638.13
2023-04-02T15:38:54.355Z,102629.78
2023-04-02T15:42:02.476Z,102628.13
2023-04-02T15:45:23.932Z,102642.31
2023-04-02T15:48:57.220Z,102639.25
2023-04-02T15:52:02.711Z,102631.84
2023-04-02T15:55:11.551Z,102652.19
2023-04-02T15:58:22.709Z,102644.38
2023-04-02T16:01:30.837Z,102657.16
2023-04-02T16:04:42.102Z,102657.97
2023-04-02T16:07:58.788Z,102670.97
2023-04-02T16:11:01.365Z,102664.00
2023-04-02T16:14:15.348Z,102671.41
2023-04-02T16:17:24.873Z,102677.59
2023-04-02T16:20:28.803Z,102677.59
2023-04-02T16:23:34.314Z,102680.97
2023-04-02T16:26:52.299Z,102681.50
2023-04-02T16:30:37.272Z,102669.56
2023-04-02T16:33:56.626Z,102684.59
2023-04-02T16:37:02.238Z,102682.72
2023-04-02T16:40:07.872Z,102693.59
2023-04-02T16:43:19.333Z,102691.94
2023-04-02T16:46:38.397Z,102705.56
2023-04-02T16:49:45.576Z,102711.75
2023-04-02T16:52:51.783Z,102710.81
2023-04-02T16:56:12.509Z,102709.69
2023-04-02T16:59:19.553Z,102721.66
2023-04-02T17:02:27.114Z,102723.38
2023-04-02T17:05:34.195Z,102725.66
2023-04-02T17:08:39.649Z,102726.72
2023-04-02T17:11:42.843Z,102735.38
2023-04-02T17:14:47.666Z,102749.56
2023-04-02T17:17:50.224Z,102746.28
2023-04-02T17:20:54.322Z,102747.09
2023-04-02T17:23:59.579Z,102746.28
2023-04-02T17:27:06.317Z,102756.88
2023-04-02T17:30:14.124Z,102754.66
2023-04-02T17:33:17.404Z,102754.66
2023-04-02T17:36:32.632Z,102762.50
2023-04-02T17:39:39.204Z,102765.88
2023-04-02T17:42:48.127Z,102785.09
2023-04-02T17:45:52.557Z,102794.34
2023-04-02T17:48:57.336Z,102801.31
2023-04-02T17:52:02.538Z,102796.66
2023-04-02T17:55:10.676Z,102803.34
2023-04-02T17:58:20.431Z,102809.47
2023-04-02T18:01:25.855Z,102806.78
2023-04-02T18:04:34.404Z,102817.34
2023-04-02T18:07:40.728Z,102819.59
2023-04-02T18:10:47.532Z,102821.31
2023-04-02T18:13:51.756Z,102824.97
2023-04-02T18:16:55.798Z,102830.31
2023-04-02T18:20:01.135Z,102834.78
2023-04-02T18:23:08.006Z,102844.84
2023-04-02T18:26:13.754Z,102848.50
2023-04-02T18:29:22.703Z,102847.72
2023-04-02T18:32:34.677Z,102854.97
2023-04-02T18:35:38.267Z,102857.22
2023-04-02T18:38:45.246Z,102860.88
2023-04-02T18:41:50.477Z,102873.41
2023-04-02T18:44:56.901Z,102872.03
2023-04-02T18:48:02.235Z,102877.34
2023-04-02T18:51:06.945Z,102877.41
2023-04-02T18:54:15.986Z,102885.75
2023-04-02T18:57:21.092Z,102882.19
2023-04-02T19:00:27.067Z,102893.56
2023-04-02T19:03:31.582Z,102895.28
2023-04-02T19:06:37.100Z,102890.59
2023-04-02T19:09:42.158Z,102893.66
2023-04-02T19:12:44.738Z,102899.25
2023-04-02T19:15:58.898Z,102894.84
2023-04-02T19:19:04.703Z,102907.91
2023-04-02T19:22:16.637Z,102917.91
2023-04-02T19:25:47.189Z,102914.88
2023-04-02T19:28:52.686Z,102918.78
2023-04-02T19:31:55.887Z,102929.34
2023-04-02T19:34:59.923Z,102934.38
2023-04-02T19:38:14.592Z,102934.41
2023-04-02T19:41:22.387Z,102942.72
2023-04-02T19:44:25.000Z,102938.31
2023-04-02T19:47:27.647Z,102944.44
2023-04-02T19:50:30.422Z,102948.34
2023-04-02T19:53:33.274Z,102950.03
2023-04-02T19:56:37.205Z,102950.59
2023-04-02T19:59:39.794Z,102957.25
2023-04-02T20:02:42.396Z,102954.19
2023-04-02T20:05:45.001Z,102966.66
2023-04-02T20:08:47.600Z,102976.09
2023-04-02T20:11:51.520Z,102970.53
2023-04-02T20:14:54.097Z,102972.78
2023-04-02T20:17:56.764Z,102978.88
2023-04-02T20:20:59.352Z,102981.69
2023-04-02T20:24:02.072Z,102973.38
2023-04-02T20:27:05.982Z,102985.00
2023-04-02T20:30:09.506Z,102993.91
2023-04-02T20:33:12.183Z,102996.13
2023-04-02T20:36:15.762Z,102995.56
2023-04-02T20:39:19.423Z,102995.84
2023-04-02T20:42:23.315Z,102997.78
2023-04-02T20:45:27.789Z,103004.44
2023-04-02T20:48:32.075Z,103004.47
2023-04-02T20:51:35.104Z,103014.44
2023-04-02T20:54:37.758Z,103019.16
2023-04-02T20:57:41.820Z,103020.53
2023-04-02T21:00:44.453Z,103024.41
2023-04-02T21:03:47.026Z,103019.41
2023-04-02T21:06:49.588Z,103023.56
2023-04-02T21:09:52.732Z,103029.66
2023-04-02T21:12:56.629Z,103042.13
2023-04-02T21:15:59.357Z,103039.63
2023-04-02T21:19:02.895Z,103047.66
2023-04-02T21:22:05.579Z,103047.66
2023-04-02T21:25:08.880Z,103056.25
2023-04-02T21:28:12.801Z,103050.44
2023-04-02T21:31:16.173Z,103054.31
2023-04-02T21:34:18.766Z,103049.31
2023-04-02T21:37:21.302Z,103068.16
2023-04-02T21:40:23.822Z,103065.34
2023-04-02T21:43:27.680Z,103061.75
2023-04-02T21:46:31.265Z,103064.50
2023-04-02T21:49:33.873Z,103059.25
2023-04-02T21:52:36.424Z,103057.56
2023-04-02T21:55:38.998Z,103056.44
2023-04-02T21:58:43.301Z,103060.31
2023-04-02T22:01:47.486Z,103063.63
2023-04-02T22:04:51.894Z,103059.72
2023-04-02T22:07:55.013Z,103061.13
2023-04-02T22:10:57.530Z,103063.56
2023-04-02T22:14:03.193Z,103067.72
2023-04-02T22:17:05.994Z,103063.56
2023-04-02T22:20:10.594Z,103069.09
2023-04-02T22:23:13.119Z,103069.66
2023-04-02T22:26:16.516Z,103063.81
2023-04-02T22:29:20.457Z,103064.63
2023-04-02T22:32:23.021Z,103070.16
2023-04-02T22:35:25.661Z,103071.50
2023-04-02T22:38:28.294Z,103069.56
2023-04-02T22:41:31.916Z,103062.88
2023-04-02T22:44:35.872Z,103063.44
2023-04-02T22:47:38.465Z,103063.13
2023-04-02T22:50:41.137Z,103068.38
2023-04-02T22:53:43.929Z,103063.38
2023-04-02T22:56:46.505Z,103071.09
2023-04-02T22:59:50.451Z,103069.44
2023-04-02T23:02:53.001Z,103073.28
2023-04-02T23:05:59.638Z,103073.28
2023-04-02T23:09:02.242Z,103078.25
2023-04-02T23:12:05.351Z,103079.91
2023-04-02T23:15:10.460Z,103076.56
2023-04-02T23:18:13.063Z,103074.34
2023-04-02T23:21:15.830Z,103081.50
2023-04-02T23:24:18.380Z,103083.69
2023-04-02T23:27:21.811Z,103081.75
2023-04-02T23:30:25.934Z,103079.75
2023-04-02T23:33:28.496Z,103078.63
2023-04-02T23:36:31.911Z,103078.03
2023-04-02T23:39:34.613Z,103090.75
2023-04-02T23:42:37.192Z,103078.56
2023-04-02T23:45:41.249Z,103082.38
2023-04-02T23:48:44.428Z,103082.06
2023-04-02T23:51:47.028Z,103087.84
2023-04-02T23:54:49.631Z,103086.13
2023-04-02T23:57:52.357Z,103093.25
